Terminal Aerodrome Forecast
Issued by NWS Wakefield, VA

Home | Current Version | Previous Version | Text Only | Print | Product List | Glossary On
Versions: 1 2 3 4 5 6 7 8 9 10 11 12 13 14 15 16 17 18 19 20
000
FTUS41 KAKQ 201700
TAFORF
TAF
KORF 201739Z 2018/2118 06007KT P6SM SCT040
     FM210000 16004KT P6SM SCT050 SCT100
     FM210800 21004KT 5SM BR BKN010
     FM211500 24006KT P6SM SCT025=

USA.gov is the U.S. government's official web portal to all federal, state and local government web resources and services.